<?xml version="1.0" encoding="UTF-8" standalone="no" ?>
<gpx xmlns="http://www.topografix.com/GPX/1/1" xmlns:xsi="http://www.w3.org/2001/XMLSchema-instance" xsi:schemaLocation="http://www.topografix.com/GPX/1/1 http://www.topografix.com/GPX/1/1/gpx.xsd" version="1.1" creator="VisuGPX - https://www.visugpx.com">
  <metadata>
    <name>TOTAL 4x4 </name>
  </metadata>
  <wpt lat="42.36368" lon="2.84007">
    <ele>181</ele>
  </wpt>
  <wpt lat="42.36397" lon="2.83975">
    <ele>185.2</ele>
  </wpt>
  <wpt lat="42.36387" lon="2.83877">
    <ele>193</ele>
  </wpt>
  <wpt lat="42.36443" lon="2.83943">
    <ele>186.6</ele>
  </wpt>
  <wpt lat="42.2714" lon="2.52859">
    <ele>415.7</ele>
  </wpt>
  <wpt lat="42.27123" lon="2.52776">
    <ele>417.3</ele>
  </wpt>
  <wpt lat="42.27143" lon="2.53029">
    <ele>408.8</ele>
  </wpt>
  <trk>
    <name><![CDATA[TOTAL 4x4 _17]]></name>
    <extensions>
      <line xmlns="http://www.topografix.com/GPX/gpx_style/0/2">
        <color>FFFF00</color>
        <width>4</width>
      </line>
    </extensions>
    <trkseg>
      <trkpt lat="42.27161" lon="0.39946">
        <ele>630.25</ele>
        <time>2021-08-02T09:36:35Z</time>
      </trkpt>
      <trkpt lat="42.27165" lon="0.39937">
        <ele>630.34</ele>
        <time>2021-08-02T09:36:38Z</time>
      </trkpt>
      <trkpt lat="42.27183" lon="0.39917">
        <ele>630.82</ele>
        <time>2021-08-02T09:36:42Z</time>
      </trkpt>
      <trkpt lat="42.27216" lon="0.39925">
        <ele>632.33</ele>
        <time>2021-08-02T09:36:47Z</time>
      </trkpt>
      <trkpt lat="42.27247" lon="0.39989">
        <ele>636.25</ele>
        <time>2021-08-02T09:36:53Z</time>
      </trkpt>
      <trkpt lat="42.27258" lon="0.40011">
        <ele>637.99</ele>
        <time>2021-08-02T09:36:55Z</time>
      </trkpt>
      <trkpt lat="42.2728" lon="0.40016">
        <ele>642.53</ele>
        <time>2021-08-02T09:37:00Z</time>
      </trkpt>
      <trkpt lat="42.27281" lon="0.40005">
        <ele>643.23</ele>
        <time>2021-08-02T09:37:01Z</time>
      </trkpt>
      <trkpt lat="42.27311" lon="0.39951">
        <ele>647.83</ele>
        <time>2021-08-02T09:37:08Z</time>
      </trkpt>
      <trkpt lat="42.27325" lon="0.40006">
        <ele>650.81</ele>
        <time>2021-08-02T09:37:12Z</time>
      </trkpt>
      <trkpt lat="42.2733" lon="0.40017">
        <ele>651.53</ele>
        <time>2021-08-02T09:37:13Z</time>
      </trkpt>
      <trkpt lat="42.27361" lon="0.40076">
        <ele>656.6</ele>
        <time>2021-08-02T09:37:19Z</time>
      </trkpt>
      <trkpt lat="42.2738" lon="0.40105">
        <ele>660.8</ele>
        <time>2021-08-02T09:37:24Z</time>
      </trkpt>
      <trkpt lat="42.2738" lon="0.40083">
        <ele>663.72</ele>
        <time>2021-08-02T09:37:27Z</time>
      </trkpt>
      <trkpt lat="42.27373" lon="0.40056">
        <ele>665.35</ele>
        <time>2021-08-02T09:37:29Z</time>
      </trkpt>
      <trkpt lat="42.27387" lon="0.40021">
        <ele>669.03</ele>
        <time>2021-08-02T09:37:35Z</time>
      </trkpt>
      <trkpt lat="42.27393" lon="0.40046">
        <ele>670.71</ele>
        <time>2021-08-02T09:37:37Z</time>
      </trkpt>
      <trkpt lat="42.27409" lon="0.40096">
        <ele>673.49</ele>
        <time>2021-08-02T09:37:41Z</time>
      </trkpt>
      <trkpt lat="42.27445" lon="0.40132">
        <ele>677.73</ele>
        <time>2021-08-02T09:37:46Z</time>
      </trkpt>
      <trkpt lat="42.27502" lon="0.40151">
        <ele>682.25</ele>
        <time>2021-08-02T09:37:51Z</time>
      </trkpt>
      <trkpt lat="42.27513" lon="0.40155">
        <ele>683.37</ele>
        <time>2021-08-02T09:37:52Z</time>
      </trkpt>
      <trkpt lat="42.27559" lon="0.40159">
        <ele>687.53</ele>
        <time>2021-08-02T09:37:56Z</time>
      </trkpt>
      <trkpt lat="42.27591" lon="0.40145">
        <ele>691.06</ele>
        <time>2021-08-02T09:37:59Z</time>
      </trkpt>
      <trkpt lat="42.27626" lon="0.40144">
        <ele>694.13</ele>
        <time>2021-08-02T09:38:02Z</time>
      </trkpt>
      <trkpt lat="42.2769" lon="0.40159">
        <ele>698.97</ele>
        <time>2021-08-02T09:38:07Z</time>
      </trkpt>
      <trkpt lat="42.27743" lon="0.40172">
        <ele>702.59</ele>
        <time>2021-08-02T09:38:11Z</time>
      </trkpt>
      <trkpt lat="42.27755" lon="0.40174">
        <ele>703.41</ele>
        <time>2021-08-02T09:38:12Z</time>
      </trkpt>
      <trkpt lat="42.27814" lon="0.40171">
        <ele>707.37</ele>
        <time>2021-08-02T09:38:17Z</time>
      </trkpt>
      <trkpt lat="42.27825" lon="0.40178">
        <ele>707.82</ele>
        <time>2021-08-02T09:38:18Z</time>
      </trkpt>
      <trkpt lat="42.27849" lon="0.40192">
        <ele>708.84</ele>
        <time>2021-08-02T09:38:20Z</time>
      </trkpt>
      <trkpt lat="42.27884" lon="0.40177">
        <ele>712.39</ele>
        <time>2021-08-02T09:38:25Z</time>
      </trkpt>
      <trkpt lat="42.27911" lon="0.4016">
        <ele>715.7</ele>
        <time>2021-08-02T09:38:30Z</time>
      </trkpt>
      <trkpt lat="42.27916" lon="0.40174">
        <ele>716.3</ele>
        <time>2021-08-02T09:38:31Z</time>
      </trkpt>
      <trkpt lat="42.27943" lon="0.40235">
        <ele>720.63</ele>
        <time>2021-08-02T09:38:37Z</time>
      </trkpt>
      <trkpt lat="42.2795" lon="0.40252">
        <ele>723.94</ele>
        <time>2021-08-02T09:38:41Z</time>
      </trkpt>
      <trkpt lat="42.27953" lon="0.40261">
        <ele>727.3</ele>
        <time>2021-08-02T09:38:47Z</time>
      </trkpt>
      <trkpt lat="42.27963" lon="0.40287">
        <ele>729.88</ele>
        <time>2021-08-02T09:38:57Z</time>
      </trkpt>
      <trkpt lat="42.27983" lon="0.40336">
        <ele>732.1</ele>
        <time>2021-08-02T09:39:04Z</time>
      </trkpt>
      <trkpt lat="42.28001" lon="0.4036">
        <ele>734.26</ele>
        <time>2021-08-02T09:39:08Z</time>
      </trkpt>
      <trkpt lat="42.28053" lon="0.40386">
        <ele>738.44</ele>
        <time>2021-08-02T09:39:15Z</time>
      </trkpt>
      <trkpt lat="42.28089" lon="0.40401">
        <ele>741.48</ele>
        <time>2021-08-02T09:39:19Z</time>
      </trkpt>
      <trkpt lat="42.28133" lon="0.40419">
        <ele>744.87</ele>
        <time>2021-08-02T09:39:24Z</time>
      </trkpt>
      <trkpt lat="42.28183" lon="0.40438">
        <ele>748.08</ele>
        <time>2021-08-02T09:39:29Z</time>
      </trkpt>
      <trkpt lat="42.28233" lon="0.40459">
        <ele>751.07</ele>
        <time>2021-08-02T09:39:34Z</time>
      </trkpt>
      <trkpt lat="42.28298" lon="0.40516">
        <ele>755.03</ele>
        <time>2021-08-02T09:39:41Z</time>
      </trkpt>
      <trkpt lat="42.28344" lon="0.40574">
        <ele>758.64</ele>
        <time>2021-08-02T09:39:47Z</time>
      </trkpt>
      <trkpt lat="42.28384" lon="0.40622">
        <ele>762.16</ele>
        <time>2021-08-02T09:39:52Z</time>
      </trkpt>
      <trkpt lat="42.28424" lon="0.40666">
        <ele>765.34</ele>
        <time>2021-08-02T09:39:57Z</time>
      </trkpt>
      <trkpt lat="42.28466" lon="0.40702">
        <ele>768.4</ele>
        <time>2021-08-02T09:40:02Z</time>
      </trkpt>
      <trkpt lat="42.28522" lon="0.40749">
        <ele>771.48</ele>
        <time>2021-08-02T09:40:08Z</time>
      </trkpt>
      <trkpt lat="42.28592" lon="0.40807">
        <ele>774.55</ele>
        <time>2021-08-02T09:40:15Z</time>
      </trkpt>
      <trkpt lat="42.28642" lon="0.40848">
        <ele>777.86</ele>
        <time>2021-08-02T09:40:21Z</time>
      </trkpt>
      <trkpt lat="42.28689" lon="0.40886">
        <ele>780.96</ele>
        <time>2021-08-02T09:40:26Z</time>
      </trkpt>
      <trkpt lat="42.28739" lon="0.40929">
        <ele>784.56</ele>
        <time>2021-08-02T09:40:32Z</time>
      </trkpt>
      <trkpt lat="42.28796" lon="0.40977">
        <ele>788.06</ele>
        <time>2021-08-02T09:40:38Z</time>
      </trkpt>
      <trkpt lat="42.28841" lon="0.41017">
        <ele>790.37</ele>
        <time>2021-08-02T09:40:43Z</time>
      </trkpt>
      <trkpt lat="42.28903" lon="0.41109">
        <ele>793.99</ele>
        <time>2021-08-02T09:40:51Z</time>
      </trkpt>
      <trkpt lat="42.28942" lon="0.4117">
        <ele>797.32</ele>
        <time>2021-08-02T09:40:56Z</time>
      </trkpt>
      <trkpt lat="42.28971" lon="0.41212">
        <ele>800.6</ele>
        <time>2021-08-02T09:41:00Z</time>
      </trkpt>
      <trkpt lat="42.29001" lon="0.41258">
        <ele>803.67</ele>
        <time>2021-08-02T09:41:05Z</time>
      </trkpt>
      <trkpt lat="42.29029" lon="0.41301">
        <ele>805.69</ele>
        <time>2021-08-02T09:41:09Z</time>
      </trkpt>
      <trkpt lat="42.29042" lon="0.41373">
        <ele>806.65</ele>
        <time>2021-08-02T09:41:14Z</time>
      </trkpt>
      <trkpt lat="42.29046" lon="0.41478">
        <ele>809.95</ele>
        <time>2021-08-02T09:41:22Z</time>
      </trkpt>
      <trkpt lat="42.29049" lon="0.41544">
        <ele>813.18</ele>
        <time>2021-08-02T09:41:27Z</time>
      </trkpt>
      <trkpt lat="42.29079" lon="0.41584">
        <ele>817.19</ele>
        <time>2021-08-02T09:41:32Z</time>
      </trkpt>
      <trkpt lat="42.29118" lon="0.41614">
        <ele>821.21</ele>
        <time>2021-08-02T09:41:37Z</time>
      </trkpt>
      <trkpt lat="42.29155" lon="0.41646">
        <ele>824.83</ele>
        <time>2021-08-02T09:41:41Z</time>
      </trkpt>
      <trkpt lat="42.29196" lon="0.41681">
        <ele>828.45</ele>
        <time>2021-08-02T09:41:46Z</time>
      </trkpt>
      <trkpt lat="42.29217" lon="0.41701">
        <ele>831.62</ele>
        <time>2021-08-02T09:41:53Z</time>
      </trkpt>
      <trkpt lat="42.29225" lon="0.41708">
        <ele>832.23</ele>
        <time>2021-08-02T09:41:55Z</time>
      </trkpt>
      <trkpt lat="42.29278" lon="0.41738">
        <ele>834.71</ele>
        <time>2021-08-02T09:42:04Z</time>
      </trkpt>
      <trkpt lat="42.2931" lon="0.4175">
        <ele>837</ele>
        <time>2021-08-02T09:42:10Z</time>
      </trkpt>
      <trkpt lat="42.29369" lon="0.41822">
        <ele>840.77</ele>
        <time>2021-08-02T09:42:21Z</time>
      </trkpt>
      <trkpt lat="42.29414" lon="0.41891">
        <ele>844.13</ele>
        <time>2021-08-02T09:42:28Z</time>
      </trkpt>
      <trkpt lat="42.29466" lon="0.4194">
        <ele>847.24</ele>
        <time>2021-08-02T09:42:34Z</time>
      </trkpt>
      <trkpt lat="42.29473" lon="0.41947">
        <ele>848.46</ele>
        <time>2021-08-02T09:42:35Z</time>
      </trkpt>
      <trkpt lat="42.29519" lon="0.41971">
        <ele>852.74</ele>
        <time>2021-08-02T09:42:41Z</time>
      </trkpt>
      <trkpt lat="42.2955" lon="0.41993">
        <ele>855.9</ele>
        <time>2021-08-02T09:42:45Z</time>
      </trkpt>
      <trkpt lat="42.29581" lon="0.42019">
        <ele>859.21</ele>
        <time>2021-08-02T09:42:49Z</time>
      </trkpt>
      <trkpt lat="42.29598" lon="0.42029">
        <ele>861.3</ele>
        <time>2021-08-02T09:42:51Z</time>
      </trkpt>
      <trkpt lat="42.29645" lon="0.42044">
        <ele>866.27</ele>
        <time>2021-08-02T09:42:56Z</time>
      </trkpt>
      <trkpt lat="42.29678" lon="0.42053">
        <ele>868.53</ele>
        <time>2021-08-02T09:42:59Z</time>
      </trkpt>
      <trkpt lat="42.29783" lon="0.42053">
        <ele>872.12</ele>
        <time>2021-08-02T09:43:09Z</time>
      </trkpt>
      <trkpt lat="42.29792" lon="0.42054">
        <ele>872.57</ele>
        <time>2021-08-02T09:43:10Z</time>
      </trkpt>
      <trkpt lat="42.29823" lon="0.42038">
        <ele>874.58</ele>
        <time>2021-08-02T09:43:14Z</time>
      </trkpt>
      <trkpt lat="42.29865" lon="0.41999">
        <ele>878.51</ele>
        <time>2021-08-02T09:43:19Z</time>
      </trkpt>
      <trkpt lat="42.29896" lon="0.41972">
        <ele>883.1</ele>
        <time>2021-08-02T09:43:24Z</time>
      </trkpt>
      <trkpt lat="42.29906" lon="0.41961">
        <ele>885.12</ele>
        <time>2021-08-02T09:43:26Z</time>
      </trkpt>
      <trkpt lat="42.29921" lon="0.41967">
        <ele>889.46</ele>
        <time>2021-08-02T09:43:31Z</time>
      </trkpt>
      <trkpt lat="42.29915" lon="0.41979">
        <ele>891.04</ele>
        <time>2021-08-02T09:43:33Z</time>
      </trkpt>
      <trkpt lat="42.29906" lon="0.41994">
        <ele>892.58</ele>
        <time>2021-08-02T09:43:35Z</time>
      </trkpt>
      <trkpt lat="42.29912" lon="0.42042">
        <ele>896.77</ele>
        <time>2021-08-02T09:43:41Z</time>
      </trkpt>
      <trkpt lat="42.2993" lon="0.42029">
        <ele>898.63</ele>
        <time>2021-08-02T09:43:44Z</time>
      </trkpt>
      <trkpt lat="42.29969" lon="0.4202">
        <ele>902.82</ele>
        <time>2021-08-02T09:43:51Z</time>
      </trkpt>
      <trkpt lat="42.29975" lon="0.42025">
        <ele>904.16</ele>
        <time>2021-08-02T09:43:53Z</time>
      </trkpt>
      <trkpt lat="42.30016" lon="0.42056">
        <ele>908.06</ele>
        <time>2021-08-02T09:44:00Z</time>
      </trkpt>
      <trkpt lat="42.30029" lon="0.42063">
        <ele>909.58</ele>
        <time>2021-08-02T09:44:02Z</time>
      </trkpt>
      <trkpt lat="42.3006" lon="0.42067">
        <ele>913.57</ele>
        <time>2021-08-02T09:44:06Z</time>
      </trkpt>
      <trkpt lat="42.3009" lon="0.4207">
        <ele>917.33</ele>
        <time>2021-08-02T09:44:10Z</time>
      </trkpt>
      <trkpt lat="42.30119" lon="0.42068">
        <ele>921.48</ele>
        <time>2021-08-02T09:44:14Z</time>
      </trkpt>
      <trkpt lat="42.30134" lon="0.42067">
        <ele>923.67</ele>
        <time>2021-08-02T09:44:16Z</time>
      </trkpt>
      <trkpt lat="42.30155" lon="0.4206">
        <ele>929.03</ele>
        <time>2021-08-02T09:44:20Z</time>
      </trkpt>
      <trkpt lat="42.30186" lon="0.42048">
        <ele>932.64</ele>
        <time>2021-08-02T09:44:24Z</time>
      </trkpt>
      <trkpt lat="42.30221" lon="0.4203">
        <ele>935.85</ele>
        <time>2021-08-02T09:44:29Z</time>
      </trkpt>
      <trkpt lat="42.30232" lon="0.42021">
        <ele>936.86</ele>
        <time>2021-08-02T09:44:31Z</time>
      </trkpt>
      <trkpt lat="42.30293" lon="0.41999">
        <ele>940.79</ele>
        <time>2021-08-02T09:44:39Z</time>
      </trkpt>
      <trkpt lat="42.30336" lon="0.42001">
        <ele>943.83</ele>
        <time>2021-08-02T09:44:44Z</time>
      </trkpt>
      <trkpt lat="42.30373" lon="0.42006">
        <ele>947.55</ele>
        <time>2021-08-02T09:44:49Z</time>
      </trkpt>
      <trkpt lat="42.30381" lon="0.42006">
        <ele>948.25</ele>
        <time>2021-08-02T09:44:50Z</time>
      </trkpt>
      <trkpt lat="42.30407" lon="0.42021">
        <ele>950.62</ele>
        <time>2021-08-02T09:44:54Z</time>
      </trkpt>
      <trkpt lat="42.30493" lon="0.4209">
        <ele>953.07</ele>
        <time>2021-08-02T09:45:05Z</time>
      </trkpt>
      <trkpt lat="42.30512" lon="0.42112">
        <ele>953.97</ele>
        <time>2021-08-02T09:45:08Z</time>
      </trkpt>
      <trkpt lat="42.30523" lon="0.42154">
        <ele>955.71</ele>
        <time>2021-08-02T09:45:13Z</time>
      </trkpt>
      <trkpt lat="42.30523" lon="0.42175">
        <ele>956.88</ele>
        <time>2021-08-02T09:45:15Z</time>
      </trkpt>
      <trkpt lat="42.30555" lon="0.42221">
        <ele>960.42</ele>
        <time>2021-08-02T09:45:22Z</time>
      </trkpt>
      <trkpt lat="42.30561" lon="0.42224">
        <ele>960.99</ele>
        <time>2021-08-02T09:45:23Z</time>
      </trkpt>
      <trkpt lat="42.30592" lon="0.4224">
        <ele>964.44</ele>
        <time>2021-08-02T09:45:28Z</time>
      </trkpt>
      <trkpt lat="42.30613" lon="0.4227">
        <ele>967.26</ele>
        <time>2021-08-02T09:45:32Z</time>
      </trkpt>
      <trkpt lat="42.3063" lon="0.42271">
        <ele>971.23</ele>
        <time>2021-08-02T09:45:39Z</time>
      </trkpt>
      <trkpt lat="42.30627" lon="0.42263">
        <ele>971.67</ele>
        <time>2021-08-02T09:45:40Z</time>
      </trkpt>
      <trkpt lat="42.30622" lon="0.42236">
        <ele>973.35</ele>
        <time>2021-08-02T09:45:43Z</time>
      </trkpt>
      <trkpt lat="42.3059" lon="0.42193">
        <ele>977.67</ele>
        <time>2021-08-02T09:45:49Z</time>
      </trkpt>
      <trkpt lat="42.30567" lon="0.4218">
        <ele>981.74</ele>
        <time>2021-08-02T09:45:53Z</time>
      </trkpt>
      <trkpt lat="42.30567" lon="0.4213">
        <ele>985.05</ele>
        <time>2021-08-02T09:45:59Z</time>
      </trkpt>
      <trkpt lat="42.30567" lon="0.42113">
        <ele>986.31</ele>
        <time>2021-08-02T09:46:01Z</time>
      </trkpt>
      <trkpt lat="42.30563" lon="0.42066">
        <ele>989.89</ele>
        <time>2021-08-02T09:46:08Z</time>
      </trkpt>
      <trkpt lat="42.30572" lon="0.42051">
        <ele>992.81</ele>
        <time>2021-08-02T09:46:16Z</time>
      </trkpt>
      <trkpt lat="42.30571" lon="0.4205">
        <ele>994.34</ele>
        <time>2021-08-02T09:46:24Z</time>
      </trkpt>
      <trkpt lat="42.306" lon="0.42053">
        <ele>996.34</ele>
        <time>2021-08-02T09:46:36Z</time>
      </trkpt>
      <trkpt lat="42.30628" lon="0.42062">
        <ele>999.57</ele>
        <time>2021-08-02T09:46:47Z</time>
      </trkpt>
      <trkpt lat="42.30665" lon="0.42072">
        <ele>1001.77</ele>
        <time>2021-08-02T09:46:55Z</time>
      </trkpt>
      <trkpt lat="42.30703" lon="0.4209">
        <ele>1005.08</ele>
        <time>2021-08-02T09:47:05Z</time>
      </trkpt>
      <trkpt lat="42.30743" lon="0.42125">
        <ele>1008.49</ele>
        <time>2021-08-02T09:47:15Z</time>
      </trkpt>
      <trkpt lat="42.3076" lon="0.42139">
        <ele>1009.93</ele>
        <time>2021-08-02T09:47:18Z</time>
      </trkpt>
      <trkpt lat="42.30788" lon="0.42144">
        <ele>1012.36</ele>
        <time>2021-08-02T09:47:22Z</time>
      </trkpt>
      <trkpt lat="42.3081" lon="0.42162">
        <ele>1017.47</ele>
        <time>2021-08-02T09:47:28Z</time>
      </trkpt>
      <trkpt lat="42.30797" lon="0.42176">
        <ele>1021.17</ele>
        <time>2021-08-02T09:47:31Z</time>
      </trkpt>
      <trkpt lat="42.30807" lon="0.42195">
        <ele>1024.31</ele>
        <time>2021-08-02T09:47:36Z</time>
      </trkpt>
      <trkpt lat="42.3082" lon="0.42193">
        <ele>1025.64</ele>
        <time>2021-08-02T09:47:38Z</time>
      </trkpt>
      <trkpt lat="42.3088" lon="0.42179">
        <ele>1029.87</ele>
        <time>2021-08-02T09:47:45Z</time>
      </trkpt>
      <trkpt lat="42.30888" lon="0.4218">
        <ele>1030.32</ele>
        <time>2021-08-02T09:47:46Z</time>
      </trkpt>
      <trkpt lat="42.30928" lon="0.42162">
        <ele>1033.9</ele>
        <time>2021-08-02T09:47:52Z</time>
      </trkpt>
      <trkpt lat="42.30967" lon="0.4213">
        <ele>1037.86</ele>
        <time>2021-08-02T09:47:58Z</time>
      </trkpt>
      <trkpt lat="42.30998" lon="0.42101">
        <ele>1039.77</ele>
        <time>2021-08-02T09:48:02Z</time>
      </trkpt>
      <trkpt lat="42.31059" lon="0.42068">
        <ele>1041.97</ele>
        <time>2021-08-02T09:48:09Z</time>
      </trkpt>
      <trkpt lat="42.31108" lon="0.42067">
        <ele>1043.13</ele>
        <time>2021-08-02T09:48:15Z</time>
      </trkpt>
      <trkpt lat="42.31116" lon="0.4206">
        <ele>1043.36</ele>
        <time>2021-08-02T09:48:16Z</time>
      </trkpt>
      <trkpt lat="42.31146" lon="0.42035">
        <ele>1043.82</ele>
        <time>2021-08-02T09:48:20Z</time>
      </trkpt>
      <trkpt lat="42.3117" lon="0.42025">
        <ele>1043.88</ele>
        <time>2021-08-02T09:48:23Z</time>
      </trkpt>
    </trkseg>
  </trk>
</gpx>